Terminal Aerodrome Forecast
Issued by NWS St Louis, MO

Home | Current Version | Previous Version | Text Only | Print | Product List | Glossary On
Versions: 1 2 3 4 5 6 7 8 9 10 11 12 13 14 15 16 17 18 19 20 21 22
000
FTUS43 KLSX 261400 AAA
TAFCOU
TAF AMD
KCOU 261422Z 2614/2712 23012G20KT P6SM BKN035
      TEMPO 2614/2617 BKN020
     FM270000 22008KT P6SM BKN040 OVC080=

USA.gov is the U.S. government's official web portal to all federal, state and local government web resources and services.